createdAt,value
2022-09-09T00:00:48.516Z,99.90
2022-09-09T00:02:23.464Z,99.90
2022-09-09T00:04:01.116Z,99.90
2022-09-09T00:05:43.656Z,99.90
2022-09-09T00:07:23.243Z,99.90
2022-09-09T00:09:04.497Z,99.90
2022-09-09T00:10:41.518Z,99.90
2022-09-09T00:12:17.840Z,99.90
2022-09-09T00:13:55.335Z,99.90
2022-09-09T00:15:32.127Z,99.90
2022-09-09T00:17:10.080Z,99.90
2022-09-09T00:18:51.449Z,99.90
2022-09-09T00:20:31.665Z,99.90
2022-09-09T00:22:17.561Z,99.90
2022-09-09T00:23:53.649Z,99.90
2022-09-09T00:25:35.093Z,99.90
2022-09-09T00:27:18.196Z,99.90
2022-09-09T00:29:02.844Z,99.90
2022-09-09T00:30:38.755Z,99.90
2022-09-09T00:32:15.690Z,99.90
2022-09-09T00:33:50.342Z,99.90
2022-09-09T00:35:26.201Z,99.90
2022-09-09T00:37:00.525Z,99.90
2022-09-09T00:38:37.107Z,99.90
2022-09-09T00:40:24.222Z,99.90
2022-09-09T00:42:14.765Z,99.90
2022-09-09T00:43:57.428Z,99.90
2022-09-09T00:45:49.261Z,99.90
2022-09-09T00:47:46.859Z,99.90
2022-09-09T00:49:34.546Z,99.90
2022-09-09T00:51:16.537Z,99.90
2022-09-09T00:52:58.789Z,99.90
2022-09-09T00:54:42.507Z,99.90
2022-09-09T00:56:17.406Z,99.90
2022-09-09T00:57:53.838Z,99.90
2022-09-09T00:59:37.320Z,99.90
2022-09-09T01:01:14.084Z,99.90
2022-09-09T01:02:56.226Z,99.90
2022-09-09T01:04:34.947Z,99.90
2022-09-09T01:06:17.910Z,99.90
2022-09-09T01:07:55.124Z,99.90
2022-09-09T01:09:44.624Z,99.90
2022-09-09T01:11:23.323Z,99.90
2022-09-09T01:13:00.688Z,99.90
2022-09-09T01:14:44.057Z,99.90
2022-09-09T01:16:18.009Z,99.90
2022-09-09T01:17:57.017Z,99.90
2022-09-09T01:19:41.267Z,99.90
2022-09-09T01:21:24.248Z,99.90
2022-09-09T01:23:12.524Z,99.90
2022-09-09T01:25:07.762Z,99.90
2022-09-09T01:26:43.782Z,99.90
2022-09-09T01:28:21.531Z,99.90
2022-09-09T01:29:54.440Z,99.90
2022-09-09T01:31:31.699Z,99.90
2022-09-09T01:33:04.716Z,99.90
2022-09-09T01:34:42.373Z,99.90
2022-09-09T01:36:21.900Z,99.90
2022-09-09T01:37:54.992Z,99.90
2022-09-09T01:39:28.598Z,99.90
2022-09-09T01:41:00.684Z,99.90
2022-09-09T01:42:34.959Z,99.90
2022-09-09T01:44:08.603Z,99.90
2022-09-09T01:45:43.046Z,99.90
2022-09-09T01:47:18.607Z,99.90
2022-09-09T01:48:53.182Z,99.90
2022-09-09T01:50:25.337Z,99.90
2022-09-09T01:51:59.179Z,99.90
2022-09-09T01:53:31.480Z,99.90
2022-09-09T01:55:04.724Z,99.90
2022-09-09T01:56:41.921Z,99.90
2022-09-09T01:58:29.348Z,99.90
2022-09-09T02:00:08.898Z,99.90
2022-09-09T02:01:55.463Z,99.90
2022-09-09T02:03:30.511Z,99.90
2022-09-09T02:05:16.159Z,99.90
2022-09-09T02:06:54.436Z,99.90
2022-09-09T02:08:33.289Z,99.90
2022-09-09T02:10:12.503Z,99.90
2022-09-09T02:11:49.490Z,99.90
2022-09-09T02:13:24.622Z,99.90
2022-09-09T02:15:02.831Z,99.90
2022-09-09T02:16:42.552Z,99.90
2022-09-09T02:18:19.248Z,99.90
2022-09-09T02:19:57.146Z,99.90
2022-09-09T02:21:32.387Z,99.90
2022-09-09T02:23:07.334Z,99.90
2022-09-09T02:24:41.518Z,99.90
2022-09-09T02:26:20.638Z,99.90
2022-09-09T02:27:53.819Z,99.90
2022-09-09T02:29:32.514Z,99.90
2022-09-09T02:31:06.322Z,99.90
2022-09-09T02:32:41.784Z,99.90
2022-09-09T02:34:16.030Z,99.90
2022-09-09T02:35:49.858Z,99.90
2022-09-09T02:37:26.119Z,99.90
2022-09-09T02:38:59.217Z,99.90
2022-09-09T02:40:32.173Z,99.90
2022-09-09T02:42:06.631Z,99.90
2022-09-09T02:43:39.655Z,99.90
2022-09-09T02:45:17.166Z,99.90
2022-09-09T02:47:13.840Z,99.90
2022-09-09T02:48:53.526Z,99.90
2022-09-09T02:50:33.600Z,99.90
2022-09-09T02:52:09.142Z,99.90
2022-09-09T02:53:50.393Z,99.90
2022-09-09T02:55:30.644Z,99.90
2022-09-09T02:57:08.594Z,99.90
2022-09-09T02:58:42.422Z,99.90
2022-09-09T03:00:16.898Z,99.90
2022-09-09T03:01:48.890Z,99.90
2022-09-09T03:03:23.022Z,99.90
2022-09-09T03:04:55.035Z,99.90
2022-09-09T03:06:28.229Z,99.90
2022-09-09T03:08:01.460Z,99.90
2022-09-09T03:09:34.623Z,99.90
2022-09-09T03:11:06.798Z,99.90
2022-09-09T03:12:39.917Z,99.90
2022-09-09T03:14:13.953Z,99.90
2022-09-09T03:15:49.560Z,99.90
2022-09-09T03:17:22.631Z,99.90
2022-09-09T03:18:55.503Z,99.90
2022-09-09T03:20:29.409Z,99.90
2022-09-09T03:22:02.578Z,99.90
2022-09-09T03:23:38.536Z,99.90
2022-09-09T03:25:11.617Z,99.90
2022-09-09T03:26:46.245Z,99.90
2022-09-09T03:28:18.188Z,99.90
2022-09-09T03:29:52.006Z,99.90
2022-09-09T03:31:26.489Z,99.90
2022-09-09T03:32:59.590Z,99.90
2022-09-09T03:34:32.597Z,99.90
2022-09-09T03:36:06.635Z,99.90
2022-09-09T03:37:39.923Z,99.90
2022-09-09T03:39:11.794Z,99.90
2022-09-09T03:40:52.195Z,99.90
2022-09-09T03:42:25.575Z,99.90
2022-09-09T03:43:58.735Z,99.90
2022-09-09T03:45:31.656Z,99.90
2022-09-09T03:47:05.417Z,99.90
2022-09-09T03:48:38.501Z,99.90
2022-09-09T03:50:12.061Z,99.90
2022-09-09T03:51:44.973Z,99.90
2022-09-09T03:53:20.234Z,99.90
2022-09-09T03:54:53.877Z,99.90
2022-09-09T03:56:26.955Z,99.90
2022-09-09T03:58:01.293Z,99.90
2022-09-09T03:59:34.305Z,99.90
2022-09-09T04:01:10.007Z,99.90
2022-09-09T04:02:45.042Z,99.90
2022-09-09T04:04:17.986Z,99.90
2022-09-09T04:05:50.614Z,99.90
2022-09-09T04:07:23.617Z,99.90
2022-09-09T04:08:56.818Z,99.90
2022-09-09T04:10:29.645Z,99.90
2022-09-09T04:12:02.863Z,99.90
2022-09-09T04:13:38.489Z,99.90
2022-09-09T04:15:12.104Z,99.90
2022-09-09T04:16:45.748Z,99.90
2022-09-09T04:18:20.724Z,99.90
2022-09-09T04:19:53.671Z,99.90
2022-09-09T04:21:26.645Z,99.90
2022-09-09T04:22:59.533Z,99.90
2022-09-09T04:24:38.414Z,99.90
2022-09-09T04:26:11.372Z,99.90
2022-09-09T04:27:45.281Z,99.90
2022-09-09T04:29:18.344Z,99.90
2022-09-09T04:30:51.626Z,99.90
2022-09-09T04:32:24.313Z,99.90
2022-09-09T04:33:58.720Z,99.90
2022-09-09T04:35:31.367Z,99.90
2022-09-09T04:37:07.104Z,99.90
2022-09-09T04:38:40.306Z,99.90
2022-09-09T04:40:13.427Z,99.90
2022-09-09T04:41:46.514Z,99.90
2022-09-09T04:43:19.885Z,99.90
2022-09-09T04:44:53.527Z,99.90
2022-09-09T04:46:26.889Z,99.90
2022-09-09T04:48:00.237Z,99.90
2022-09-09T04:49:34.972Z,99.90
2022-09-09T04:51:10.486Z,99.90
2022-09-09T04:52:43.819Z,99.90
2022-09-09T04:54:16.746Z,99.90
2022-09-09T04:55:49.846Z,99.90
2022-09-09T04:57:22.917Z,99.90
2022-09-09T04:58:56.416Z,99.90
2022-09-09T05:00:28.487Z,99.90
2022-09-09T05:02:02.036Z,99.90
2022-09-09T05:03:34.607Z,99.90
2022-09-09T05:05:09.475Z,99.90
2022-09-09T05:06:43.221Z,99.90
2022-09-09T05:08:16.353Z,99.90
2022-09-09T05:09:50.332Z,99.90
2022-09-09T05:11:25.167Z,99.90
2022-09-09T05:12:58.217Z,99.90
2022-09-09T05:14:31.502Z,99.90
2022-09-09T05:16:04.499Z,99.90
2022-09-09T05:17:37.425Z,99.90
2022-09-09T05:19:10.477Z,99.90
2022-09-09T05:20:43.912Z,99.90
2022-09-09T05:22:21.411Z,99.90
2022-09-09T05:23:54.532Z,99.90
2022-09-09T05:25:27.060Z,99.90
2022-09-09T05:27:00.902Z,99.90
2022-09-09T05:28:36.301Z,99.90
2022-09-09T05:30:10.921Z,99.90
2022-09-09T05:31:43.879Z,99.90
2022-09-09T05:33:16.845Z,99.90
2022-09-09T05:34:50.053Z,99.90
2022-09-09T05:36:25.234Z,99.90
2022-09-09T05:38:02.941Z,99.90
2022-09-09T05:39:37.244Z,99.90
2022-09-09T05:41:12.035Z,99.90
2022-09-09T05:42:44.916Z,99.90
2022-09-09T05:44:18.457Z,99.90
2022-09-09T05:46:02.115Z,99.90
2022-09-09T05:47:34.974Z,99.90
2022-09-09T05:49:09.222Z,99.90
2022-09-09T05:50:42.083Z,99.90
2022-09-09T05:52:16.227Z,99.90
2022-09-09T05:53:49.643Z,99.90
2022-09-09T05:55:22.576Z,99.90
2022-09-09T05:56:55.799Z,99.90
2022-09-09T05:58:28.696Z,99.90
2022-09-09T06:00:01.555Z,99.90
2022-09-09T06:01:36.090Z,99.90
2022-09-09T06:03:11.463Z,99.90
2022-09-09T06:04:44.443Z,99.90
2022-09-09T06:06:19.100Z,99.90
2022-09-09T06:07:56.591Z,99.90
2022-09-09T06:09:31.348Z,99.90
2022-09-09T06:11:06.829Z,99.90
2022-09-09T06:12:39.808Z,99.90
2022-09-09T06:14:12.784Z,99.90
2022-09-09T06:15:52.134Z,99.90
2022-09-09T06:17:25.157Z,99.90
2022-09-09T06:18:59.053Z,99.90
2022-09-09T06:20:32.515Z,99.90
2022-09-09T06:22:06.404Z,99.90
2022-09-09T06:23:42.328Z,99.90
2022-09-09T06:25:15.374Z,99.90
2022-09-09T06:26:48.256Z,99.90
2022-09-09T06:28:21.332Z,99.90
2022-09-09T06:29:54.197Z,99.90
2022-09-09T06:31:31.367Z,99.90
2022-09-09T06:33:04.729Z,99.90
2022-09-09T06:34:37.626Z,99.90
2022-09-09T06:36:13.544Z,99.90
2022-09-09T06:37:49.760Z,99.90
2022-09-09T06:39:24.251Z,99.90
2022-09-09T06:40:59.227Z,99.90
2022-09-09T06:42:32.763Z,99.90
2022-09-09T06:44:05.711Z,99.90
2022-09-09T06:45:38.610Z,99.90
2022-09-09T06:47:11.968Z,99.90
2022-09-09T06:48:47.363Z,99.90
2022-09-09T06:50:21.905Z,99.90
2022-09-09T06:51:54.986Z,99.90
2022-09-09T06:53:27.058Z,99.90
2022-09-09T06:55:01.328Z,99.90
2022-09-09T06:56:36.046Z,99.90
2022-09-09T06:58:10.967Z,99.90
2022-09-09T06:59:44.147Z,99.90
2022-09-09T07:01:20.239Z,99.90
2022-09-09T07:02:53.658Z,99.90
2022-09-09T07:04:27.096Z,99.90
2022-09-09T07:06:00.339Z,99.90
2022-09-09T07:07:33.137Z,99.90
2022-09-09T07:09:07.981Z,99.90
2022-09-09T07:10:42.206Z,99.90
2022-09-09T07:12:15.123Z,99.90
2022-09-09T07:13:48.286Z,99.90
2022-09-09T07:15:21.024Z,99.90
2022-09-09T07:16:57.595Z,99.90
2022-09-09T07:18:31.809Z,99.90
2022-09-09T07:20:06.726Z,99.90
2022-09-09T07:21:41.352Z,99.90
2022-09-09T07:23:14.226Z,99.90
2022-09-09T07:24:47.104Z,99.90
2022-09-09T07:26:23.399Z,99.90
2022-09-09T07:27:56.328Z,99.90
2022-09-09T07:29:29.199Z,99.90
2022-09-09T07:31:04.302Z,99.90
2022-09-09T07:32:37.253Z,99.90
2022-09-09T07:34:10.431Z,99.90
2022-09-09T07:35:43.769Z,99.90
2022-09-09T07:37:16.950Z,99.90
2022-09-09T07:38:51.111Z,99.90
2022-09-09T07:40:23.836Z,99.90
2022-09-09T07:41:59.002Z,99.90
2022-09-09T07:43:31.922Z,99.90
2022-09-09T07:45:06.561Z,99.90
2022-09-09T07:46:41.000Z,99.90
2022-09-09T07:48:14.036Z,99.90
2022-09-09T07:49:47.879Z,99.90
2022-09-09T07:51:23.298Z,99.90
2022-09-09T07:52:57.619Z,99.90
2022-09-09T07:54:30.834Z,99.90
2022-09-09T07:56:10.142Z,99.90
2022-09-09T07:57:44.855Z,99.90
2022-09-09T07:59:17.824Z,99.90
2022-09-09T08:00:50.750Z,99.90
2022-09-09T08:02:24.089Z,99.90
2022-09-09T08:04:00.644Z,99.90
2022-09-09T08:05:33.523Z,99.90
2022-09-09T08:07:06.537Z,99.90
2022-09-09T08:08:39.987Z,99.90
2022-09-09T08:10:15.516Z,99.90
2022-09-09T08:11:48.680Z,99.90
2022-09-09T08:13:22.775Z,99.90
2022-09-09T08:14:56.089Z,99.90
2022-09-09T08:16:31.881Z,99.90
2022-09-09T08:18:05.311Z,99.90
2022-09-09T08:19:38.202Z,99.90
2022-09-09T08:21:13.799Z,99.70
2022-09-09T08:22:47.050Z,99.80
2022-09-09T08:24:20.609Z,99.90
2022-09-09T08:25:53.480Z,99.70
2022-09-09T08:27:26.691Z,99.90
2022-09-09T08:29:02.274Z,99.70
2022-09-09T08:30:35.197Z,99.70
2022-09-09T08:32:08.189Z,99.90
2022-09-09T08:33:42.164Z,99.90
2022-09-09T08:35:15.488Z,99.90
2022-09-09T08:36:49.608Z,99.80
2022-09-09T08:38:22.119Z,99.80
2022-09-09T08:39:55.231Z,99.80
2022-09-09T08:41:56.293Z,99.90
2022-09-09T08:43:33.156Z,99.80
2022-09-09T08:45:23.574Z,99.90
2022-09-09T08:47:04.230Z,99.90
2022-09-09T08:48:47.766Z,99.90
2022-09-09T08:50:26.898Z,99.70
2022-09-09T08:52:00.089Z,99.70
2022-09-09T08:53:39.071Z,99.60
2022-09-09T08:55:27.174Z,99.50
2022-09-09T08:57:00.106Z,99.60
2022-09-09T08:58:35.189Z,99.10
2022-09-09T09:00:13.684Z,99.00
2022-09-09T09:02:05.894Z,98.90
2022-09-09T09:03:53.402Z,98.60
2022-09-09T09:05:33.743Z,98.00
2022-09-09T09:07:15.911Z,97.50
2022-09-09T09:08:58.890Z,97.30
2022-09-09T09:10:45.702Z,97.00
2022-09-09T09:12:22.394Z,96.70
2022-09-09T09:13:58.675Z,96.40
2022-09-09T09:15:39.696Z,96.00
2022-09-09T09:17:16.651Z,95.50
2022-09-09T09:18:49.686Z,95.20
2022-09-09T09:20:31.570Z,94.40
2022-09-09T09:22:12.507Z,93.80
2022-09-09T09:23:51.953Z,93.70
2022-09-09T09:25:29.309Z,93.50
2022-09-09T09:27:13.844Z,93.30
2022-09-09T09:28:48.087Z,93.00
2022-09-09T09:30:29.461Z,93.00
2022-09-09T09:32:06.224Z,93.00
2022-09-09T09:33:48.672Z,92.80
2022-09-09T09:35:21.581Z,93.00
2022-09-09T09:36:57.688Z,93.20
2022-09-09T09:40:25.244Z,92.70
2022-09-09T09:41:58.674Z,92.70
2022-09-09T09:43:33.489Z,92.70
2022-09-09T09:45:22.935Z,92.60
2022-09-09T09:47:10.077Z,92.40
2022-09-09T09:48:43.132Z,92.30
2022-09-09T09:50:20.528Z,92.10
2022-09-09T09:51:53.566Z,91.90
2022-09-09T09:53:29.087Z,92.10
2022-09-09T09:55:08.462Z,92.50
2022-09-09T09:56:42.396Z,92.30
2022-09-09T09:58:18.764Z,92.00
2022-09-09T10:00:02.315Z,91.60
2022-09-09T10:01:37.428Z,91.00
2022-09-09T10:03:24.293Z,91.00
2022-09-09T10:05:04.968Z,90.30
2022-09-09T10:06:40.745Z,90.00
2022-09-09T10:08:15.653Z,89.70
2022-09-09T10:09:54.527Z,88.30
2022-09-09T10:11:39.877Z,87.50
2022-09-09T10:13:19.947Z,87.50
2022-09-09T10:15:02.421Z,86.50
2022-09-09T10:16:50.097Z,86.10
2022-09-09T10:18:42.986Z,85.50
2022-09-09T10:20:29.955Z,85.40
2022-09-09T10:22:13.462Z,85.30
2022-09-09T10:23:55.241Z,84.70
2022-09-09T10:25:41.079Z,85.30
2022-09-09T10:27:23.431Z,86.30
2022-09-09T10:29:30.582Z,87.20
2022-09-09T10:31:14.403Z,88.20
2022-09-09T10:32:56.740Z,87.40
2022-09-09T10:34:47.287Z,87.20
2022-09-09T10:36:22.946Z,86.90
2022-09-09T10:38:19.628Z,86.40
2022-09-09T10:40:01.568Z,85.30
2022-09-09T10:41:44.485Z,84.70
2022-09-09T10:43:28.972Z,84.50
2022-09-09T10:45:12.992Z,83.80
2022-09-09T10:47:01.909Z,82.70
2022-09-09T10:48:46.682Z,82.10
2022-09-09T10:51:00.461Z,81.40
2022-09-09T10:52:44.219Z,81.30
2022-09-09T10:54:29.878Z,81.70
2022-09-09T10:56:08.770Z,81.80
2022-09-09T10:57:44.102Z,81.40
2022-09-09T10:59:21.762Z,81.10
2022-09-09T11:00:58.412Z,80.80
2022-09-09T11:02:32.954Z,81.00
2022-09-09T11:04:13.018Z,80.70
2022-09-09T11:05:51.581Z,80.50
2022-09-09T11:07:31.643Z,79.80
2022-09-09T11:09:06.397Z,79.30
2022-09-09T11:10:44.813Z,79.80
2022-09-09T11:12:21.501Z,79.30
2022-09-09T11:13:59.754Z,78.90
2022-09-09T11:15:41.880Z,78.90
2022-09-09T11:17:19.131Z,79.00
2022-09-09T11:18:52.078Z,79.10
2022-09-09T11:20:26.287Z,79.90
2022-09-09T11:22:02.847Z,80.10
2022-09-09T11:23:44.473Z,80.10
2022-09-09T11:25:20.805Z,79.60
2022-09-09T11:26:59.627Z,79.40
2022-09-09T11:28:46.326Z,79.00
2022-09-09T11:30:44.091Z,79.00
2022-09-09T11:32:29.069Z,78.00
2022-09-09T11:34:19.407Z,77.90
2022-09-09T11:36:26.612Z,77.90
2022-09-09T11:38:21.178Z,78.30
2022-09-09T11:40:12.047Z,77.50
2022-09-09T11:41:45.387Z,77.20
2022-09-09T11:43:24.898Z,76.60
2022-09-09T11:44:58.390Z,76.00
2022-09-09T11:46:37.441Z,75.60
2022-09-09T11:48:25.944Z,75.30
2022-09-09T11:50:11.795Z,74.40
2022-09-09T11:51:44.705Z,73.80
2022-09-09T11:53:23.571Z,73.90
2022-09-09T11:54:57.726Z,73.50
2022-09-09T11:56:33.084Z,74.00
2022-09-09T11:58:06.973Z,73.50
2022-09-09T11:59:39.993Z,73.40
2022-09-09T12:01:15.925Z,74.00
2022-09-09T12:02:51.816Z,74.30
2022-09-09T12:04:39.237Z,75.10
2022-09-09T12:06:17.169Z,76.10
2022-09-09T12:07:55.720Z,76.60
2022-09-09T12:09:38.887Z,76.80
2022-09-09T12:11:12.280Z,76.60
2022-09-09T12:12:45.249Z,77.50
2022-09-09T12:14:37.629Z,79.00
2022-09-09T12:16:31.889Z,81.30
2022-09-09T12:18:16.747Z,84.40
2022-09-09T12:19:50.298Z,84.70
2022-09-09T12:21:34.522Z,86.50
2022-09-09T12:23:38.913Z,84.50
2022-09-09T12:25:23.343Z,87.10
2022-09-09T12:27:02.777Z,83.30
2022-09-09T12:28:49.815Z,82.70
2022-09-09T12:30:24.159Z,83.20
2022-09-09T12:32:02.138Z,81.40
2022-09-09T12:33:38.289Z,82.60
2022-09-09T12:35:15.896Z,82.60
2022-09-09T12:36:56.085Z,84.00
2022-09-09T12:38:34.939Z,84.20
2022-09-09T12:40:20.644Z,81.40
2022-09-09T12:41:57.635Z,82.00
2022-09-09T12:43:31.280Z,82.70
2022-09-09T12:45:18.855Z,82.10
2022-09-09T12:46:53.735Z,81.60
2022-09-09T12:48:33.489Z,80.80
2022-09-09T12:50:08.162Z,80.40
2022-09-09T12:51:41.081Z,82.20
2022-09-09T12:53:26.398Z,80.20
2022-09-09T12:55:02.381Z,80.70
2022-09-09T12:56:36.378Z,80.60
2022-09-09T12:58:19.072Z,79.00
2022-09-09T12:59:52.188Z,77.60
2022-09-09T13:01:28.419Z,78.30
2022-09-09T13:03:03.113Z,78.50
2022-09-09T13:04:35.069Z,78.20
2022-09-09T13:06:15.843Z,77.20
2022-09-09T13:07:49.100Z,77.50
2022-09-09T13:09:22.875Z,78.80
2022-09-09T13:11:02.803Z,80.00
2022-09-09T13:12:35.242Z,82.30
2022-09-09T13:14:20.268Z,84.60
2022-09-09T13:15:55.682Z,85.80
2022-09-09T13:17:30.532Z,86.80
2022-09-09T13:19:08.967Z,87.00
2022-09-09T13:20:48.901Z,87.90
2022-09-09T13:22:31.698Z,88.00
2022-09-09T13:24:08.422Z,89.20
2022-09-09T13:25:43.864Z,88.80
2022-09-09T13:27:28.737Z,86.80
2022-09-09T13:29:21.170Z,86.70
2022-09-09T13:31:03.233Z,86.70
2022-09-09T13:32:36.600Z,84.10
2022-09-09T13:34:15.039Z,85.00
2022-09-09T13:35:51.327Z,83.80
2022-09-09T13:37:38.151Z,84.50
2022-09-09T13:39:17.561Z,84.10
2022-09-09T13:41:00.222Z,84.50
2022-09-09T13:42:37.126Z,84.10
2022-09-09T13:44:25.994Z,84.70
2022-09-09T13:46:01.016Z,85.10
2022-09-09T13:47:36.398Z,85.40
2022-09-09T13:49:50.533Z,85.60
2022-09-09T13:51:57.133Z,85.60
2022-09-09T13:53:30.974Z,85.90
2022-09-09T13:55:04.320Z,85.70
2022-09-09T13:56:37.663Z,85.30
2022-09-09T13:58:19.145Z,85.80
2022-09-09T14:00:11.082Z,85.30
2022-09-09T14:01:45.233Z,84.50
2022-09-09T14:03:18.547Z,84.00
2022-09-09T14:04:55.982Z,83.50
2022-09-09T14:06:30.240Z,83.90
2022-09-09T14:08:05.997Z,84.00
2022-09-09T14:09:39.114Z,84.30
2022-09-09T14:11:13.401Z,83.60
2022-09-09T14:12:47.625Z,83.40
2022-09-09T14:14:21.210Z,83.60
2022-09-09T14:15:55.491Z,82.60
2022-09-09T14:23:25.657Z,83.00
2022-09-09T14:24:58.913Z,83.70
2022-09-09T14:26:31.940Z,83.50
2022-09-09T14:28:04.817Z,84.10
2022-09-09T14:29:37.785Z,84.50
2022-09-09T14:31:12.148Z,85.10
2022-09-09T14:32:45.388Z,85.40
2022-09-09T14:34:18.521Z,85.30
2022-09-09T14:35:58.414Z,85.40
2022-09-09T14:37:32.524Z,86.10
2022-09-09T14:39:06.017Z,86.40
2022-09-09T14:40:40.314Z,86.40
2022-09-09T14:42:13.403Z,86.70
2022-09-09T14:43:46.836Z,86.70
2022-09-09T14:45:19.771Z,86.70
2022-09-09T14:46:54.276Z,86.80
2022-09-09T14:48:27.376Z,86.60
2022-09-09T14:50:01.984Z,86.40
2022-09-09T14:51:35.182Z,86.10
2022-09-09T14:53:08.154Z,86.00
2022-09-09T14:54:41.450Z,86.10
2022-09-09T14:56:17.590Z,86.50
2022-09-09T14:57:50.947Z,86.10
2022-09-09T14:59:24.011Z,87.10
2022-09-09T15:00:56.784Z,86.80
2022-09-09T15:02:32.411Z,87.00
2022-09-09T15:04:07.267Z,87.10
2022-09-09T15:05:40.194Z,87.20
2022-09-09T15:07:13.318Z,87.40
2022-09-09T15:08:46.777Z,87.70
2022-09-09T15:10:29.391Z,87.80
2022-09-09T15:12:02.862Z,87.90
2022-09-09T15:13:38.239Z,87.60
2022-09-09T15:15:11.756Z,87.40
2022-09-09T15:16:44.759Z,85.90
2022-09-09T15:18:19.178Z,85.50
2022-09-09T15:19:52.208Z,84.50
2022-09-09T15:21:27.539Z,84.50
2022-09-09T15:23:00.486Z,84.40
2022-09-09T15:24:33.640Z,84.30
2022-09-09T15:26:07.099Z,85.00
2022-09-09T15:27:40.101Z,85.90
2022-09-09T15:29:13.327Z,86.00
2022-09-09T15:30:49.061Z,86.40
2022-09-09T15:32:21.959Z,86.70
2022-09-09T15:34:01.545Z,88.00
2022-09-09T15:35:34.482Z,87.60
2022-09-09T15:37:08.589Z,88.30
2022-09-09T15:38:41.484Z,87.90
2022-09-09T15:40:14.456Z,87.80
2022-09-09T15:41:48.954Z,88.20
2022-09-09T15:43:21.868Z,88.50
2022-09-09T15:44:54.873Z,88.50
2022-09-09T15:46:31.652Z,86.80
2022-09-09T15:48:05.829Z,86.70
2022-09-09T15:49:40.314Z,85.40
2022-09-09T15:51:31.171Z,83.60
2022-09-09T15:53:07.226Z,84.30
2022-09-09T15:54:41.120Z,82.80
2022-09-09T15:56:13.130Z,83.50
2022-09-09T15:57:46.288Z,82.90
2022-09-09T15:59:19.251Z,83.10
2022-09-09T16:00:52.344Z,81.40
2022-09-09T16:02:25.347Z,81.90
2022-09-09T16:04:00.909Z,81.40
2022-09-09T16:05:35.527Z,81.00
2022-09-09T16:07:08.424Z,81.30
2022-09-09T16:08:42.251Z,80.90
2022-09-09T16:10:15.220Z,81.50
2022-09-09T16:11:48.843Z,82.10
2022-09-09T16:13:21.844Z,82.40
2022-09-09T16:14:54.889Z,82.80
2022-09-09T16:16:30.691Z,83.40
2022-09-09T16:18:04.269Z,82.80
2022-09-09T16:19:37.519Z,83.30
2022-09-09T16:21:13.945Z,83.10
2022-09-09T16:22:46.838Z,82.90
2022-09-09T16:24:21.479Z,83.30
2022-09-09T16:25:56.786Z,83.30
2022-09-09T16:27:29.796Z,83.00
2022-09-09T16:29:03.607Z,82.80
2022-09-09T16:30:39.679Z,82.70
2022-09-09T16:32:12.986Z,82.00
2022-09-09T16:33:46.187Z,82.00
2022-09-09T16:35:20.447Z,81.80
2022-09-09T16:36:54.706Z,81.70
2022-09-09T16:38:27.602Z,81.30
2022-09-09T16:40:00.537Z,81.40
2022-09-09T16:41:33.072Z,81.40
2022-09-09T16:43:07.281Z,81.60
2022-09-09T16:44:40.187Z,81.50
2022-09-09T16:46:16.617Z,81.40
2022-09-09T16:47:49.885Z,82.00
2022-09-09T16:49:22.784Z,82.20
2022-09-09T16:51:02.651Z,82.30
2022-09-09T16:52:36.970Z,82.40
2022-09-09T16:54:12.374Z,82.50
2022-09-09T16:55:45.324Z,83.00
2022-09-09T16:57:18.236Z,82.90
2022-09-09T16:58:52.248Z,83.00
2022-09-09T17:00:25.384Z,82.90
2022-09-09T17:01:58.403Z,82.90
2022-09-09T17:03:32.403Z,83.10
2022-09-09T17:05:05.953Z,83.40
2022-09-09T17:06:39.885Z,83.60
2022-09-09T17:08:14.207Z,83.80
2022-09-09T17:09:47.228Z,84.20
2022-09-09T17:11:21.482Z,84.00
2022-09-09T17:12:55.014Z,84.40
2022-09-09T17:14:28.130Z,84.70
2022-09-09T17:16:02.994Z,84.80
2022-09-09T17:17:36.212Z,85.00
2022-09-09T17:19:10.326Z,85.30
2022-09-09T17:20:46.921Z,85.20
2022-09-09T17:22:20.789Z,85.60
2022-09-09T17:23:56.099Z,86.20
2022-09-09T17:25:29.242Z,86.30
2022-09-09T17:27:03.502Z,86.80
2022-09-09T17:28:37.090Z,87.10
2022-09-09T17:30:11.207Z,87.50
2022-09-09T17:31:44.185Z,87.40
2022-09-09T17:33:17.171Z,87.70
2022-09-09T17:34:50.235Z,87.80
2022-09-09T17:36:25.465Z,88.20
2022-09-09T17:37:59.023Z,88.20
2022-09-09T17:39:33.684Z,88.60
2022-09-09T17:41:08.928Z,88.80
2022-09-09T17:42:43.268Z,88.90
2022-09-09T17:44:16.421Z,89.20
2022-09-09T17:45:50.570Z,89.10
2022-09-09T17:47:23.470Z,88.90
2022-09-09T17:48:59.137Z,87.70
2022-09-09T17:50:33.790Z,87.30
2022-09-09T17:52:06.825Z,87.50
2022-09-09T17:53:40.697Z,87.50
2022-09-09T17:55:16.561Z,87.50
2022-09-09T17:56:50.301Z,87.40
2022-09-09T17:58:24.420Z,87.30
2022-09-09T17:59:57.469Z,87.80
2022-09-09T18:01:32.900Z,88.10
2022-09-09T18:03:06.050Z,88.20
2022-09-09T18:04:38.911Z,88.50
2022-09-09T18:06:16.140Z,88.90
2022-09-09T18:07:49.570Z,89.50
2022-09-09T18:09:24.754Z,89.50
2022-09-09T18:10:59.359Z,90.00
2022-09-09T18:12:32.452Z,90.00
2022-09-09T18:14:06.895Z,90.00
2022-09-09T18:15:49.287Z,90.10
2022-09-09T18:17:23.034Z,90.30
2022-09-09T18:18:58.323Z,90.40
2022-09-09T18:20:31.391Z,90.40
2022-09-09T18:22:06.845Z,90.50
2022-09-09T18:23:42.749Z,90.60
2022-09-09T18:25:16.180Z,90.60
2022-09-09T18:26:51.945Z,90.70
2022-09-09T18:28:25.675Z,90.80
2022-09-09T18:29:58.888Z,90.70
2022-09-09T18:31:32.180Z,90.70
2022-09-09T18:33:05.534Z,90.60
2022-09-09T18:34:38.590Z,90.60
2022-09-09T18:36:15.252Z,90.30
2022-09-09T18:37:48.766Z,90.30
2022-09-09T18:39:24.881Z,90.40
2022-09-09T18:40:59.342Z,92.90
2022-09-09T18:42:34.296Z,95.10
2022-09-09T18:44:09.550Z,96.90
2022-09-09T18:45:42.750Z,98.50
2022-09-09T18:47:16.053Z,99.50
2022-09-09T18:48:50.630Z,99.90
2022-09-09T18:50:24.155Z,99.90
2022-09-09T18:51:57.981Z,99.90
2022-09-09T18:53:31.137Z,99.90
2022-09-09T18:55:04.857Z,99.90
2022-09-09T18:56:38.569Z,99.90
2022-09-09T18:58:14.023Z,99.90
2022-09-09T18:59:49.327Z,99.90
2022-09-09T19:01:23.052Z,99.90
2022-09-09T19:02:56.186Z,99.90
2022-09-09T19:04:29.570Z,99.90
2022-09-09T19:06:03.713Z,99.90
2022-09-09T19:07:37.054Z,99.90
2022-09-09T19:09:12.268Z,99.90
2022-09-09T19:10:46.891Z,99.90
2022-09-09T19:12:20.212Z,99.90
2022-09-09T19:13:56.011Z,99.90
2022-09-09T19:15:29.740Z,99.90
2022-09-09T19:17:02.792Z,99.90
2022-09-09T19:18:36.716Z,99.90
2022-09-09T19:20:11.042Z,99.90
2022-09-09T19:21:45.026Z,99.90
2022-09-09T19:23:18.489Z,99.90
2022-09-09T19:24:51.954Z,99.90
2022-09-09T19:26:25.346Z,99.90
2022-09-09T19:27:58.519Z,99.90
2022-09-09T19:29:35.074Z,99.90
2022-09-09T19:31:10.391Z,99.90
2022-09-09T19:32:53.365Z,99.90
2022-09-09T19:34:27.393Z,99.90
2022-09-09T19:36:02.070Z,99.90
2022-09-09T19:37:35.343Z,99.90
2022-09-09T19:39:09.038Z,99.90
2022-09-09T19:40:42.491Z,99.90
2022-09-09T19:42:15.621Z,99.90
2022-09-09T19:43:49.701Z,99.90
2022-09-09T19:45:24.134Z,99.90
2022-09-09T19:46:57.306Z,99.90
2022-09-09T19:48:32.521Z,99.90
2022-09-09T19:50:06.156Z,99.90
2022-09-09T19:51:40.025Z,99.90
2022-09-09T19:53:13.005Z,99.90
2022-09-09T19:54:46.886Z,99.90
2022-09-09T19:56:21.829Z,99.90
2022-09-09T19:57:54.826Z,99.90
2022-09-09T19:59:28.150Z,99.90
2022-09-09T20:01:10.529Z,99.90
2022-09-09T20:02:58.086Z,99.90
2022-09-09T20:04:38.749Z,99.90
2022-09-09T20:06:14.079Z,99.90
2022-09-09T20:07:47.120Z,99.90
2022-09-09T20:09:21.504Z,99.90
2022-09-09T20:10:54.957Z,99.90
2022-09-09T20:12:28.192Z,99.90
2022-09-09T20:14:01.090Z,99.90
2022-09-09T20:15:34.174Z,99.90
2022-09-09T20:17:10.061Z,99.90
2022-09-09T20:18:46.521Z,99.90
2022-09-09T20:20:19.730Z,99.90
2022-09-09T20:21:52.777Z,99.90
2022-09-09T20:23:26.291Z,99.90
2022-09-09T20:24:59.497Z,99.90
2022-09-09T20:26:35.033Z,99.90
2022-09-09T20:28:08.194Z,99.90
2022-09-09T20:29:41.299Z,99.90
2022-09-09T20:31:16.454Z,99.90
2022-09-09T20:32:50.919Z,99.90
2022-09-09T20:34:25.806Z,99.90
2022-09-09T20:36:00.008Z,99.90
2022-09-09T20:37:33.089Z,99.90
2022-09-09T20:39:08.361Z,99.90
2022-09-09T20:40:42.649Z,99.90
2022-09-09T20:42:15.661Z,99.90
2022-09-09T20:43:49.643Z,99.90
2022-09-09T20:45:22.667Z,99.90
2022-09-09T20:47:00.073Z,99.90
2022-09-09T20:48:35.663Z,99.90
2022-09-09T20:50:09.656Z,99.90